sensor_id;sensor_type;location;lat;lon;timestamp;P1;durP1;ratioP1;P2;durP2;ratioP2
17382;SDS011;8809;51.892;8.384;2023-04-06T00:00:50;7.10;;;4.40;;
17382;SDS011;8809;51.892;8.384;2023-04-06T00:03:18;6.07;;;4.60;;
17382;SDS011;8809;51.892;8.384;2023-04-06T00:05:46;5.32;;;4.38;;
17382;SDS011;8809;51.892;8.384;2023-04-06T00:08:14;6.32;;;4.40;;
17382;SDS011;8809;51.892;8.384;2023-04-06T00:10:41;6.95;;;4.75;;
17382;SDS011;8809;51.892;8.384;2023-04-06T00:13:10;6.05;;;4.68;;
17382;SDS011;8809;51.892;8.384;2023-04-06T00:15:37;6.40;;;4.85;;
17382;SDS011;8809;51.892;8.384;2023-04-06T00:18:07;4.80;;;4.30;;
17382;SDS011;8809;51.892;8.384;2023-04-06T00:20:34;5.22;;;4.72;;
17382;SDS011;8809;51.892;8.384;2023-04-06T00:23:02;5.95;;;5.13;;
17382;SDS011;8809;51.892;8.384;2023-04-06T00:25:30;5.95;;;4.63;;
17382;SDS011;8809;51.892;8.384;2023-04-06T00:27:57;5.70;;;4.90;;
17382;SDS011;8809;51.892;8.384;2023-04-06T00:30:26;5.68;;;4.57;;
17382;SDS011;8809;51.892;8.384;2023-04-06T00:32:53;4.90;;;4.13;;
17382;SDS011;8809;51.892;8.384;2023-04-06T00:35:20;5.68;;;4.72;;
17382;SDS011;8809;51.892;8.384;2023-04-06T00:37:48;5.05;;;4.30;;
17382;SDS011;8809;51.892;8.384;2023-04-06T00:40:15;5.95;;;4.35;;
17382;SDS011;8809;51.892;8.384;2023-04-06T00:42:42;5.32;;;4.50;;
17382;SDS011;8809;51.892;8.384;2023-04-06T00:45:10;6.00;;;4.97;;
17382;SDS011;8809;51.892;8.384;2023-04-06T00:47:38;5.07;;;4.57;;
17382;SDS011;8809;51.892;8.384;2023-04-06T00:50:06;6.20;;;4.75;;
17382;SDS011;8809;51.892;8.384;2023-04-06T00:52:35;4.90;;;4.35;;
17382;SDS011;8809;51.892;8.384;2023-04-06T00:55:02;5.60;;;4.57;;
17382;SDS011;8809;51.892;8.384;2023-04-06T00:57:30;4.45;;;3.90;;
17382;SDS011;8809;51.892;8.384;2023-04-06T00:59:57;6.18;;;4.57;;
17382;SDS011;8809;51.892;8.384;2023-04-06T01:02:25;5.07;;;4.57;;
17382;SDS011;8809;51.892;8.384;2023-04-06T01:04:53;6.00;;;5.05;;
17382;SDS011;8809;51.892;8.384;2023-04-06T01:07:20;5.00;;;4.47;;
17382;SDS011;8809;51.892;8.384;2023-04-06T01:09:48;4.90;;;4.25;;
17382;SDS011;8809;51.892;8.384;2023-04-06T01:12:16;5.63;;;4.80;;
17382;SDS011;8809;51.892;8.384;2023-04-06T01:14:44;6.07;;;5.05;;
17382;SDS011;8809;51.892;8.384;2023-04-06T01:17:11;6.07;;;4.93;;
17382;SDS011;8809;51.892;8.384;2023-04-06T01:19:38;6.85;;;4.90;;
17382;SDS011;8809;51.892;8.384;2023-04-06T01:22:07;5.63;;;5.05;;
17382;SDS011;8809;51.892;8.384;2023-04-06T01:24:36;5.65;;;5.00;;
17382;SDS011;8809;51.892;8.384;2023-04-06T01:27:03;6.75;;;5.28;;
17382;SDS011;8809;51.892;8.384;2023-04-06T01:29:30;5.65;;;4.88;;
17382;SDS011;8809;51.892;8.384;2023-04-06T01:31:57;5.72;;;5.18;;
17382;SDS011;8809;51.892;8.384;2023-04-06T01:34:24;7.50;;;5.68;;
17382;SDS011;8809;51.892;8.384;2023-04-06T01:36:51;5.97;;;4.70;;
17382;SDS011;8809;51.892;8.384;2023-04-06T01:39:18;5.53;;;4.97;;
17382;SDS011;8809;51.892;8.384;2023-04-06T01:41:47;6.57;;;5.65;;
17382;SDS011;8809;51.892;8.384;2023-04-06T01:44:16;6.53;;;5.63;;
17382;SDS011;8809;51.892;8.384;2023-04-06T01:46:43;8.48;;;5.20;;
17382;SDS011;8809;51.892;8.384;2023-04-06T01:49:11;6.82;;;5.10;;
17382;SDS011;8809;51.892;8.384;2023-04-06T01:51:38;5.45;;;4.57;;
17382;SDS011;8809;51.892;8.384;2023-04-06T01:54:05;6.60;;;5.40;;
17382;SDS011;8809;51.892;8.384;2023-04-06T01:56:33;5.35;;;4.80;;
17382;SDS011;8809;51.892;8.384;2023-04-06T01:59:02;5.78;;;4.57;;
17382;SDS011;8809;51.892;8.384;2023-04-06T02:01:29;6.18;;;5.03;;
17382;SDS011;8809;51.892;8.384;2023-04-06T02:03:56;5.85;;;5.22;;
17382;SDS011;8809;51.892;8.384;2023-04-06T02:06:24;6.47;;;5.38;;
17382;SDS011;8809;51.892;8.384;2023-04-06T02:08:52;5.65;;;5.07;;
17382;SDS011;8809;51.892;8.384;2023-04-06T02:11:19;5.82;;;5.18;;
17382;SDS011;8809;51.892;8.384;2023-04-06T02:13:46;6.85;;;5.40;;
17382;SDS011;8809;51.892;8.384;2023-04-06T02:16:15;6.05;;;4.95;;
17382;SDS011;8809;51.892;8.384;2023-04-06T02:18:42;5.57;;;4.90;;
17382;SDS011;8809;51.892;8.384;2023-04-06T02:21:10;7.05;;;5.30;;
17382;SDS011;8809;51.892;8.384;2023-04-06T02:23:38;7.72;;;5.45;;
17382;SDS011;8809;51.892;8.384;2023-04-06T02:26:05;7.25;;;5.60;;
17382;SDS011;8809;51.892;8.384;2023-04-06T02:28:32;6.88;;;5.40;;
17382;SDS011;8809;51.892;8.384;2023-04-06T02:30:59;6.57;;;5.47;;
17382;SDS011;8809;51.892;8.384;2023-04-06T02:33:28;6.10;;;5.50;;
17382;SDS011;8809;51.892;8.384;2023-04-06T02:35:55;6.03;;;5.25;;
17382;SDS011;8809;51.892;8.384;2023-04-06T02:38:22;5.88;;;5.28;;
17382;SDS011;8809;51.892;8.384;2023-04-06T02:40:49;6.05;;;5.03;;
17382;SDS011;8809;51.892;8.384;2023-04-06T02:43:16;6.38;;;5.40;;
17382;SDS011;8809;51.892;8.384;2023-04-06T02:45:44;6.38;;;5.28;;
17382;SDS011;8809;51.892;8.384;2023-04-06T02:48:11;6.97;;;5.53;;
17382;SDS011;8809;51.892;8.384;2023-04-06T02:50:39;5.57;;;4.90;;
17382;SDS011;8809;51.892;8.384;2023-04-06T02:53:07;6.63;;;5.47;;
17382;SDS011;8809;51.892;8.384;2023-04-06T02:55:34;7.05;;;5.63;;
17382;SDS011;8809;51.892;8.384;2023-04-06T02:58:01;6.40;;;5.50;;
17382;SDS011;8809;51.892;8.384;2023-04-06T03:00:29;6.78;;;5.82;;
17382;SDS011;8809;51.892;8.384;2023-04-06T03:02:56;7.53;;;5.45;;
17382;SDS011;8809;51.892;8.384;2023-04-06T03:05:23;6.95;;;5.20;;
17382;SDS011;8809;51.892;8.384;2023-04-06T03:07:51;7.18;;;5.68;;
17382;SDS011;8809;51.892;8.384;2023-04-06T03:10:19;6.22;;;5.35;;
17382;SDS011;8809;51.892;8.384;2023-04-06T03:12:46;7.25;;;5.40;;
17382;SDS011;8809;51.892;8.384;2023-04-06T03:15:13;6.78;;;5.38;;
17382;SDS011;8809;51.892;8.384;2023-04-06T03:17:40;7.80;;;5.55;;
17382;SDS011;8809;51.892;8.384;2023-04-06T03:20:08;6.45;;;5.55;;
17382;SDS011;8809;51.892;8.384;2023-04-06T03:22:36;6.45;;;5.47;;
17382;SDS011;8809;51.892;8.384;2023-04-06T03:25:05;5.82;;;5.03;;
17382;SDS011;8809;51.892;8.384;2023-04-06T03:27:33;6.45;;;5.22;;
17382;SDS011;8809;51.892;8.384;2023-04-06T03:30:00;6.55;;;5.63;;
17382;SDS011;8809;51.892;8.384;2023-04-06T03:32:31;7.07;;;5.63;;
17382;SDS011;8809;51.892;8.384;2023-04-06T03:34:58;6.68;;;5.47;;
17382;SDS011;8809;51.892;8.384;2023-04-06T03:37:26;7.15;;;5.78;;
17382;SDS011;8809;51.892;8.384;2023-04-06T03:39:53;6.72;;;5.85;;
17382;SDS011;8809;51.892;8.384;2023-04-06T03:42:21;6.75;;;5.32;;
17382;SDS011;8809;51.892;8.384;2023-04-06T03:44:48;7.93;;;5.82;;
17382;SDS011;8809;51.892;8.384;2023-04-06T03:47:15;8.25;;;6.05;;
17382;SDS011;8809;51.892;8.384;2023-04-06T03:49:42;8.77;;;6.00;;
17382;SDS011;8809;51.892;8.384;2023-04-06T03:52:09;8.57;;;6.68;;
17382;SDS011;8809;51.892;8.384;2023-04-06T03:54:36;6.95;;;5.63;;
17382;SDS011;8809;51.892;8.384;2023-04-06T03:57:04;8.23;;;5.70;;
17382;SDS011;8809;51.892;8.384;2023-04-06T03:59:32;7.65;;;5.40;;
17382;SDS011;8809;51.892;8.384;2023-04-06T04:01:59;6.75;;;6.05;;
17382;SDS011;8809;51.892;8.384;2023-04-06T04:04:28;8.38;;;5.90;;
17382;SDS011;8809;51.892;8.384;2023-04-06T04:06:55;6.47;;;5.53;;
17382;SDS011;8809;51.892;8.384;2023-04-06T04:09:23;7.63;;;5.90;;
17382;SDS011;8809;51.892;8.384;2023-04-06T04:11:50;6.35;;;5.63;;
17382;SDS011;8809;51.892;8.384;2023-04-06T04:14:17;8.48;;;6.50;;
17382;SDS011;8809;51.892;8.384;2023-04-06T04:16:46;8.18;;;6.32;;
17382;SDS011;8809;51.892;8.384;2023-04-06T04:19:13;8.05;;;6.35;;
17382;SDS011;8809;51.892;8.384;2023-04-06T04:21:44;8.80;;;6.03;;
17382;SDS011;8809;51.892;8.384;2023-04-06T04:24:12;6.65;;;5.95;;
17382;SDS011;8809;51.892;8.384;2023-04-06T04:26:40;7.60;;;5.95;;
17382;SDS011;8809;51.892;8.384;2023-04-06T04:29:07;6.68;;;5.80;;
17382;SDS011;8809;51.892;8.384;2023-04-06T04:31:36;7.07;;;6.22;;
17382;SDS011;8809;51.892;8.384;2023-04-06T04:34:05;6.60;;;5.90;;
17382;SDS011;8809;51.892;8.384;2023-04-06T04:36:33;8.18;;;5.85;;
17382;SDS011;8809;51.892;8.384;2023-04-06T04:39:00;7.05;;;6.00;;
17382;SDS011;8809;51.892;8.384;2023-04-06T04:41:27;8.75;;;5.80;;
17382;SDS011;8809;51.892;8.384;2023-04-06T04:43:54;7.95;;;6.63;;
17382;SDS011;8809;51.892;8.384;2023-04-06T04:46:21;6.90;;;5.97;;
17382;SDS011;8809;51.892;8.384;2023-04-06T04:48:48;7.05;;;5.75;;
17382;SDS011;8809;51.892;8.384;2023-04-06T04:51:18;8.50;;;6.43;;
17382;SDS011;8809;51.892;8.384;2023-04-06T04:53:46;7.53;;;6.07;;
17382;SDS011;8809;51.892;8.384;2023-04-06T04:56:13;7.30;;;5.97;;
17382;SDS011;8809;51.892;8.384;2023-04-06T04:58:40;7.90;;;5.88;;
17382;SDS011;8809;51.892;8.384;2023-04-06T05:01:07;7.30;;;5.40;;
17382;SDS011;8809;51.892;8.384;2023-04-06T05:03:35;7.00;;;5.60;;
17382;SDS011;8809;51.892;8.384;2023-04-06T05:06:04;7.45;;;5.80;;
17382;SDS011;8809;51.892;8.384;2023-04-06T05:08:33;7.00;;;6.30;;
17382;SDS011;8809;51.892;8.384;2023-04-06T05:11:01;6.90;;;5.70;;
17382;SDS011;8809;51.892;8.384;2023-04-06T05:13:29;7.38;;;5.70;;
17382;SDS011;8809;51.892;8.384;2023-04-06T05:15:57;8.13;;;5.90;;
17382;SDS011;8809;51.892;8.384;2023-04-06T05:18:25;6.07;;;5.40;;
17382;SDS011;8809;51.892;8.384;2023-04-06T05:20:52;6.05;;;5.40;;
17382;SDS011;8809;51.892;8.384;2023-04-06T05:23:20;6.15;;;5.55;;
17382;SDS011;8809;51.892;8.384;2023-04-06T05:25:48;8.18;;;5.60;;
17382;SDS011;8809;51.892;8.384;2023-04-06T05:28:15;6.00;;;5.20;;
17382;SDS011;8809;51.892;8.384;2023-04-06T05:30:42;7.30;;;5.55;;
17382;SDS011;8809;51.892;8.384;2023-04-06T05:33:10;7.57;;;5.70;;
17382;SDS011;8809;51.892;8.384;2023-04-06T05:35:38;6.70;;;5.60;;
17382;SDS011;8809;51.892;8.384;2023-04-06T05:38:07;5.40;;;4.80;;
17382;SDS011;8809;51.892;8.384;2023-04-06T05:40:35;6.55;;;5.03;;
17382;SDS011;8809;51.892;8.384;2023-04-06T05:43:04;5.65;;;5.07;;
17382;SDS011;8809;51.892;8.384;2023-04-06T05:45:31;5.40;;;4.90;;
17382;SDS011;8809;51.892;8.384;2023-04-06T05:47:58;7.03;;;5.63;;
17382;SDS011;8809;51.892;8.384;2023-04-06T05:50:26;5.53;;;5.00;;
17382;SDS011;8809;51.892;8.384;2023-04-06T05:52:53;5.97;;;4.90;;
17382;SDS011;8809;51.892;8.384;2023-04-06T05:55:20;5.55;;;4.43;;
17382;SDS011;8809;51.892;8.384;2023-04-06T05:57:48;6.43;;;4.68;;
17382;SDS011;8809;51.892;8.384;2023-04-06T06:00:17;5.47;;;4.38;;
17382;SDS011;8809;51.892;8.384;2023-04-06T06:02:45;4.75;;;4.22;;
17382;SDS011;8809;51.892;8.384;2023-04-06T06:05:12;5.70;;;4.55;;
17382;SDS011;8809;51.892;8.384;2023-04-06T06:07:40;4.70;;;4.20;;
17382;SDS011;8809;51.892;8.384;2023-04-06T06:10:07;5.85;;;4.53;;
17382;SDS011;8809;51.892;8.384;2023-04-06T06:12:35;5.57;;;4.53;;
17382;SDS011;8809;51.892;8.384;2023-04-06T06:15:03;5.22;;;4.50;;
17382;SDS011;8809;51.892;8.384;2023-04-06T06:17:32;4.93;;;4.07;;
17382;SDS011;8809;51.892;8.384;2023-04-06T06:20:00;5.13;;;3.92;;
17382;SDS011;8809;51.892;8.384;2023-04-06T06:22:34;5.55;;;4.55;;
17382;SDS011;8809;51.892;8.384;2023-04-06T06:25:01;5.40;;;4.18;;
17382;SDS011;8809;51.892;8.384;2023-04-06T06:27:29;6.03;;;5.00;;
17382;SDS011;8809;51.892;8.384;2023-04-06T06:29:56;5.95;;;4.90;;
17382;SDS011;8809;51.892;8.384;2023-04-06T06:32:25;4.95;;;4.22;;
17382;SDS011;8809;51.892;8.384;2023-04-06T06:34:54;6.38;;;5.00;;
17382;SDS011;8809;51.892;8.384;2023-04-06T06:37:21;4.53;;;4.10;;
17382;SDS011;8809;51.892;8.384;2023-04-06T06:39:48;6.85;;;4.30;;
17382;SDS011;8809;51.892;8.384;2023-04-06T06:42:15;7.43;;;5.35;;
17382;SDS011;8809;51.892;8.384;2023-04-06T06:44:43;5.18;;;4.68;;
17382;SDS011;8809;51.892;8.384;2023-04-06T06:47:10;8.98;;;6.20;;
17382;SDS011;8809;51.892;8.384;2023-04-06T06:49:38;8.15;;;6.13;;
17382;SDS011;8809;51.892;8.384;2023-04-06T06:52:07;7.82;;;5.47;;
17382;SDS011;8809;51.892;8.384;2023-04-06T06:54:34;7.65;;;6.15;;
17382;SDS011;8809;51.892;8.384;2023-04-06T06:57:01;6.32;;;5.47;;
17382;SDS011;8809;51.892;8.384;2023-04-06T06:59:29;8.52;;;5.30;;
17382;SDS011;8809;51.892;8.384;2023-04-06T07:01:56;7.90;;;5.68;;
17382;SDS011;8809;51.892;8.384;2023-04-06T07:04:23;7.78;;;5.65;;
17382;SDS011;8809;51.892;8.384;2023-04-06T07:06:51;7.65;;;5.60;;
17382;SDS011;8809;51.892;8.384;2023-04-06T07:09:20;8.10;;;5.85;;
17382;SDS011;8809;51.892;8.384;2023-04-06T07:11:47;7.03;;;5.18;;
17382;SDS011;8809;51.892;8.384;2023-04-06T07:14:15;7.93;;;6.47;;
17382;SDS011;8809;51.892;8.384;2023-04-06T07:16:42;8.98;;;5.85;;
17382;SDS011;8809;51.892;8.384;2023-04-06T07:19:12;7.47;;;5.72;;
17382;SDS011;8809;51.892;8.384;2023-04-06T07:21:39;6.20;;;5.32;;
17382;SDS011;8809;51.892;8.384;2023-04-06T07:24:06;8.15;;;6.90;;
17382;SDS011;8809;51.892;8.384;2023-04-06T07:26:35;8.40;;;6.05;;
17382;SDS011;8809;51.892;8.384;2023-04-06T07:29:02;7.50;;;6.20;;
17382;SDS011;8809;51.892;8.384;2023-04-06T07:31:30;7.93;;;6.45;;
17382;SDS011;8809;51.892;8.384;2023-04-06T07:33:57;8.18;;;5.82;;
17382;SDS011;8809;51.892;8.384;2023-04-06T07:36:24;7.75;;;5.07;;
17382;SDS011;8809;51.892;8.384;2023-04-06T07:38:52;6.72;;;5.28;;
17382;SDS011;8809;51.892;8.384;2023-04-06T07:41:19;6.90;;;5.03;;
17382;SDS011;8809;51.892;8.384;2023-04-06T07:43:47;6.03;;;4.93;;
17382;SDS011;8809;51.892;8.384;2023-04-06T07:46:15;7.72;;;5.32;;
17382;SDS011;8809;51.892;8.384;2023-04-06T07:48:42;6.05;;;4.93;;
17382;SDS011;8809;51.892;8.384;2023-04-06T07:51:11;6.18;;;5.28;;
17382;SDS011;8809;51.892;8.384;2023-04-06T07:53:40;8.18;;;6.28;;
17382;SDS011;8809;51.892;8.384;2023-04-06T07:56:08;6.78;;;5.57;;
17382;SDS011;8809;51.892;8.384;2023-04-06T07:58:35;7.32;;;5.45;;
17382;SDS011;8809;51.892;8.384;2023-04-06T08:01:04;6.78;;;5.78;;
17382;SDS011;8809;51.892;8.384;2023-04-06T08:03:33;8.18;;;6.22;;
17382;SDS011;8809;51.892;8.384;2023-04-06T08:06:00;8.10;;;6.13;;
17382;SDS011;8809;51.892;8.384;2023-04-06T08:08:27;6.00;;;5.40;;
17382;SDS011;8809;51.892;8.384;2023-04-06T08:10:56;6.93;;;5.22;;
17382;SDS011;8809;51.892;8.384;2023-04-06T08:13:23;6.57;;;5.20;;
17382;SDS011;8809;51.892;8.384;2023-04-06T08:15:51;10.95;;;6.22;;
17382;SDS011;8809;51.892;8.384;2023-04-06T08:18:20;7.30;;;6.10;;
17382;SDS011;8809;51.892;8.384;2023-04-06T08:20:47;7.78;;;5.60;;
17382;SDS011;8809;51.892;8.384;2023-04-06T08:23:15;8.77;;;6.18;;
17382;SDS011;8809;51.892;8.384;2023-04-06T08:25:42;6.30;;;5.38;;
17382;SDS011;8809;51.892;8.384;2023-04-06T08:28:10;7.35;;;6.18;;
17382;SDS011;8809;51.892;8.384;2023-04-06T08:30:39;7.90;;;5.85;;
17382;SDS011;8809;51.892;8.384;2023-04-06T08:33:07;6.90;;;5.70;;
17382;SDS011;8809;51.892;8.384;2023-04-06T08:35:36;9.77;;;6.43;;
17382;SDS011;8809;51.892;8.384;2023-04-06T08:38:03;8.95;;;6.07;;
17382;SDS011;8809;51.892;8.384;2023-04-06T08:40:35;6.72;;;5.38;;
17382;SDS011;8809;51.892;8.384;2023-04-06T08:43:03;6.35;;;5.47;;
17382;SDS011;8809;51.892;8.384;2023-04-06T08:45:37;6.13;;;5.10;;
17382;SDS011;8809;51.892;8.384;2023-04-06T08:48:05;9.45;;;6.75;;
17382;SDS011;8809;51.892;8.384;2023-04-06T08:50:33;9.63;;;7.50;;
17382;SDS011;8809;51.892;8.384;2023-04-06T08:53:02;11.07;;;7.03;;
17382;SDS011;8809;51.892;8.384;2023-04-06T08:55:30;8.88;;;6.53;;
17382;SDS011;8809;51.892;8.384;2023-04-06T08:57:58;9.50;;;7.03;;
17382;SDS011;8809;51.892;8.384;2023-04-06T09:00:26;8.15;;;6.10;;
17382;SDS011;8809;51.892;8.384;2023-04-06T09:02:56;11.75;;;6.88;;
17382;SDS011;8809;51.892;8.384;2023-04-06T09:05:25;9.75;;;6.97;;
17382;SDS011;8809;51.892;8.384;2023-04-06T09:07:53;11.85;;;6.78;;
17382;SDS011;8809;51.892;8.384;2023-04-06T09:10:21;8.23;;;6.75;;
17382;SDS011;8809;51.892;8.384;2023-04-06T09:12:51;8.55;;;6.78;;
17382;SDS011;8809;51.892;8.384;2023-04-06T09:15:29;10.00;;;7.07;;
17382;SDS011;8809;51.892;8.384;2023-04-06T09:17:56;11.88;;;7.63;;
17382;SDS011;8809;51.892;8.384;2023-04-06T09:20:24;9.65;;;7.00;;
17382;SDS011;8809;51.892;8.384;2023-04-06T09:22:55;10.02;;;7.47;;
17382;SDS011;8809;51.892;8.384;2023-04-06T09:25:23;9.70;;;6.93;;
17382;SDS011;8809;51.892;8.384;2023-04-06T09:27:58;10.30;;;7.22;;
17382;SDS011;8809;51.892;8.384;2023-04-06T09:30:26;11.02;;;7.47;;
17382;SDS011;8809;51.892;8.384;2023-04-06T09:32:55;11.27;;;7.10;;
17382;SDS011;8809;51.892;8.384;2023-04-06T09:35:24;9.18;;;6.53;;
17382;SDS011;8809;51.892;8.384;2023-04-06T09:37:52;9.73;;;6.50;;
17382;SDS011;8809;51.892;8.384;2023-04-06T09:40:22;9.63;;;6.75;;
17382;SDS011;8809;51.892;8.384;2023-04-06T09:42:50;10.80;;;7.93;;
17382;SDS011;8809;51.892;8.384;2023-04-06T09:45:19;10.57;;;7.38;;
17382;SDS011;8809;51.892;8.384;2023-04-06T09:47:47;11.80;;;8.20;;
17382;SDS011;8809;51.892;8.384;2023-04-06T09:50:19;9.68;;;7.38;;
17382;SDS011;8809;51.892;8.384;2023-04-06T09:52:48;15.10;;;8.40;;
17382;SDS011;8809;51.892;8.384;2023-04-06T09:55:22;12.45;;;8.07;;
17382;SDS011;8809;51.892;8.384;2023-04-06T09:57:53;12.57;;;8.00;;
17382;SDS011;8809;51.892;8.384;2023-04-06T10:00:24;12.35;;;8.23;;
17382;SDS011;8809;51.892;8.384;2023-04-06T10:02:56;11.73;;;8.30;;
17382;SDS011;8809;51.892;8.384;2023-04-06T10:05:33;13.40;;;9.02;;
17382;SDS011;8809;51.892;8.384;2023-04-06T10:08:05;13.27;;;9.13;;
17382;SDS011;8809;51.892;8.384;2023-04-06T10:10:37;12.63;;;8.18;;
17382;SDS011;8809;51.892;8.384;2023-04-06T10:13:05;13.50;;;9.07;;
17382;SDS011;8809;51.892;8.384;2023-04-06T10:15:33;12.85;;;8.63;;
17382;SDS011;8809;51.892;8.384;2023-04-06T10:18:04;14.73;;;8.90;;
17382;SDS011;8809;51.892;8.384;2023-04-06T10:20:35;11.80;;;7.80;;
17382;SDS011;8809;51.892;8.384;2023-04-06T10:23:08;13.20;;;9.25;;
17382;SDS011;8809;51.892;8.384;2023-04-06T10:25:55;12.20;;;8.75;;
17382;SDS011;8809;51.892;8.384;2023-04-06T10:28:23;11.55;;;8.07;;
17382;SDS011;8809;51.892;8.384;2023-04-06T10:30:56;10.98;;;8.10;;
17382;SDS011;8809;51.892;8.384;2023-04-06T10:33:25;13.75;;;9.52;;
17382;SDS011;8809;51.892;8.384;2023-04-06T10:35:52;14.27;;;9.55;;
17382;SDS011;8809;51.892;8.384;2023-04-06T10:38:32;10.98;;;8.27;;
17382;SDS011;8809;51.892;8.384;2023-04-06T10:41:04;12.95;;;8.77;;
17382;SDS011;8809;51.892;8.384;2023-04-06T10:43:33;14.95;;;9.20;;
17382;SDS011;8809;51.892;8.384;2023-04-06T10:46:02;12.30;;;8.93;;
17382;SDS011;8809;51.892;8.384;2023-04-06T10:48:36;12.65;;;9.10;;
17382;SDS011;8809;51.892;8.384;2023-04-06T10:51:09;15.45;;;10.38;;
17382;SDS011;8809;51.892;8.384;2023-04-06T10:53:38;16.63;;;9.90;;
17382;SDS011;8809;51.892;8.384;2023-04-06T10:56:10;14.60;;;9.57;;
17382;SDS011;8809;51.892;8.384;2023-04-06T10:58:45;14.77;;;9.45;;
17382;SDS011;8809;51.892;8.384;2023-04-06T11:01:13;15.35;;;9.55;;
17382;SDS011;8809;51.892;8.384;2023-04-06T11:03:43;15.95;;;9.80;;
17382;SDS011;8809;51.892;8.384;2023-04-06T11:06:17;16.20;;;9.90;;
17382;SDS011;8809;51.892;8.384;2023-04-06T11:08:45;12.77;;;9.18;;
17382;SDS011;8809;51.892;8.384;2023-04-06T11:11:14;14.23;;;9.85;;
17382;SDS011;8809;51.892;8.384;2023-04-06T11:13:44;14.35;;;9.63;;
17382;SDS011;8809;51.892;8.384;2023-04-06T11:16:13;14.40;;;9.23;;
17382;SDS011;8809;51.892;8.384;2023-04-06T11:18:51;12.85;;;8.90;;
17382;SDS011;8809;51.892;8.384;2023-04-06T11:21:20;11.45;;;8.57;;
17382;SDS011;8809;51.892;8.384;2023-04-06T11:24:03;12.75;;;9.10;;
17382;SDS011;8809;51.892;8.384;2023-04-06T11:26:36;15.38;;;9.77;;
17382;SDS011;8809;51.892;8.384;2023-04-06T11:29:04;12.90;;;8.88;;
17382;SDS011;8809;51.892;8.384;2023-04-06T11:31:31;11.85;;;8.50;;
17382;SDS011;8809;51.892;8.384;2023-04-06T11:34:08;12.45;;;8.60;;
17382;SDS011;8809;51.892;8.384;2023-04-06T11:36:39;11.70;;;8.43;;
17382;SDS011;8809;51.892;8.384;2023-04-06T11:39:08;12.68;;;7.72;;
17382;SDS011;8809;51.892;8.384;2023-04-06T11:41:37;11.88;;;8.20;;
17382;SDS011;8809;51.892;8.384;2023-04-06T11:44:05;10.05;;;7.45;;
17382;SDS011;8809;51.892;8.384;2023-04-06T11:46:32;11.77;;;8.27;;
17382;SDS011;8809;51.892;8.384;2023-04-06T11:49:00;10.48;;;7.88;;
17382;SDS011;8809;51.892;8.384;2023-04-06T11:51:28;13.68;;;7.75;;
17382;SDS011;8809;51.892;8.384;2023-04-06T11:53:56;16.52;;;8.50;;
17382;SDS011;8809;51.892;8.384;2023-04-06T11:56:24;11.80;;;8.23;;
17382;SDS011;8809;51.892;8.384;2023-04-06T11:58:54;12.07;;;8.43;;
17382;SDS011;8809;51.892;8.384;2023-04-06T12:01:22;12.48;;;8.93;;
17382;SDS011;8809;51.892;8.384;2023-04-06T12:03:50;11.43;;;7.30;;
17382;SDS011;8809;51.892;8.384;2023-04-06T12:06:18;11.45;;;8.52;;
17382;SDS011;8809;51.892;8.384;2023-04-06T12:08:45;10.00;;;6.80;;
17382;SDS011;8809;51.892;8.384;2023-04-06T12:11:13;10.02;;;7.32;;
17382;SDS011;8809;51.892;8.384;2023-04-06T12:13:40;9.93;;;7.15;;
17382;SDS011;8809;51.892;8.384;2023-04-06T12:16:08;11.45;;;8.52;;
17382;SDS011;8809;51.892;8.384;2023-04-06T12:18:36;11.05;;;7.80;;
17382;SDS011;8809;51.892;8.384;2023-04-06T12:21:03;11.77;;;8.40;;
17382;SDS011;8809;51.892;8.384;2023-04-06T12:23:31;10.95;;;7.35;;
17382;SDS011;8809;51.892;8.384;2023-04-06T12:25:58;11.70;;;7.88;;
17382;SDS011;8809;51.892;8.384;2023-04-06T12:28:26;10.90;;;7.45;;
17382;SDS011;8809;51.892;8.384;2023-04-06T12:30:54;8.50;;;6.57;;
17382;SDS011;8809;51.892;8.384;2023-04-06T12:33:23;11.75;;;7.22;;
17382;SDS011;8809;51.892;8.384;2023-04-06T12:35:51;7.80;;;6.43;;
17382;SDS011;8809;51.892;8.384;2023-04-06T12:38:18;9.68;;;6.22;;
17382;SDS011;8809;51.892;8.384;2023-04-06T12:40:46;9.07;;;7.22;;
17382;SDS011;8809;51.892;8.384;2023-04-06T12:43:13;9.00;;;7.25;;
17382;SDS011;8809;51.892;8.384;2023-04-06T12:45:59;10.43;;;7.25;;
17382;SDS011;8809;51.892;8.384;2023-04-06T12:48:28;10.63;;;7.20;;
17382;SDS011;8809;51.892;8.384;2023-04-06T12:50:57;10.13;;;6.72;;
17382;SDS011;8809;51.892;8.384;2023-04-06T12:53:25;14.18;;;8.25;;
17382;SDS011;8809;51.892;8.384;2023-04-06T12:55:53;11.48;;;7.72;;
17382;SDS011;8809;51.892;8.384;2023-04-06T12:58:23;8.73;;;6.97;;
17382;SDS011;8809;51.892;8.384;2023-04-06T13:00:52;9.82;;;7.28;;
17382;SDS011;8809;51.892;8.384;2023-04-06T13:03:21;10.52;;;7.63;;
17382;SDS011;8809;51.892;8.384;2023-04-06T13:05:50;10.23;;;6.88;;
17382;SDS011;8809;51.892;8.384;2023-04-06T13:08:18;10.70;;;7.60;;
17382;SDS011;8809;51.892;8.384;2023-04-06T13:10:46;9.90;;;6.85;;
17382;SDS011;8809;51.892;8.384;2023-04-06T13:13:16;12.95;;;8.27;;
17382;SDS011;8809;51.892;8.384;2023-04-06T13:15:44;12.50;;;8.13;;
17382;SDS011;8809;51.892;8.384;2023-04-06T13:18:12;11.93;;;8.35;;
17382;SDS011;8809;51.892;8.384;2023-04-06T13:20:41;12.77;;;8.13;;
17382;SDS011;8809;51.892;8.384;2023-04-06T13:23:12;9.93;;;7.10;;
17382;SDS011;8809;51.892;8.384;2023-04-06T13:25:43;9.15;;;6.47;;
17382;SDS011;8809;51.892;8.384;2023-04-06T13:28:10;10.90;;;6.60;;
17382;SDS011;8809;51.892;8.384;2023-04-06T13:30:38;10.23;;;7.47;;
17382;SDS011;8809;51.892;8.384;2023-04-06T13:33:05;13.50;;;8.82;;
17382;SDS011;8809;51.892;8.384;2023-04-06T13:35:32;12.40;;;8.82;;
17382;SDS011;8809;51.892;8.384;2023-04-06T13:38:01;13.73;;;9.95;;
17382;SDS011;8809;51.892;8.384;2023-04-06T13:40:29;10.85;;;7.90;;
17382;SDS011;8809;51.892;8.384;2023-04-06T13:42:57;14.07;;;9.57;;
17382;SDS011;8809;51.892;8.384;2023-04-06T13:45:24;15.82;;;10.35;;
17382;SDS011;8809;51.892;8.384;2023-04-06T13:47:52;15.65;;;10.80;;
17382;SDS011;8809;51.892;8.384;2023-04-06T13:50:20;16.48;;;10.85;;
17382;SDS011;8809;51.892;8.384;2023-04-06T13:52:47;15.82;;;10.13;;
17382;SDS011;8809;51.892;8.384;2023-04-06T13:55:15;15.30;;;10.25;;
17382;SDS011;8809;51.892;8.384;2023-04-06T13:57:44;13.13;;;9.05;;
17382;SDS011;8809;51.892;8.384;2023-04-06T14:00:12;15.20;;;9.65;;
17382;SDS011;8809;51.892;8.384;2023-04-06T14:02:42;13.15;;;9.95;;
17382;SDS011;8809;51.892;8.384;2023-04-06T14:05:10;16.35;;;9.98;;
17382;SDS011;8809;51.892;8.384;2023-04-06T14:07:38;16.60;;;10.30;;
17382;SDS011;8809;51.892;8.384;2023-04-06T14:10:06;16.25;;;10.30;;
17382;SDS011;8809;51.892;8.384;2023-04-06T14:12:39;15.35;;;10.75;;
17382;SDS011;8809;51.892;8.384;2023-04-06T14:15:10;15.15;;;10.02;;
17382;SDS011;8809;51.892;8.384;2023-04-06T14:17:38;16.25;;;10.07;;
17382;SDS011;8809;51.892;8.384;2023-04-06T14:20:06;12.45;;;8.95;;
17382;SDS011;8809;51.892;8.384;2023-04-06T14:22:39;13.02;;;9.35;;
17382;SDS011;8809;51.892;8.384;2023-04-06T14:25:07;14.90;;;9.38;;
17382;SDS011;8809;51.892;8.384;2023-04-06T14:27:36;17.05;;;10.90;;
17382;SDS011;8809;51.892;8.384;2023-04-06T14:30:08;14.98;;;10.68;;
17382;SDS011;8809;51.892;8.384;2023-04-06T14:32:36;13.90;;;9.27;;
17382;SDS011;8809;51.892;8.384;2023-04-06T14:35:04;12.93;;;8.20;;
17382;SDS011;8809;51.892;8.384;2023-04-06T14:37:31;15.70;;;9.98;;
17382;SDS011;8809;51.892;8.384;2023-04-06T14:39:58;15.10;;;10.77;;
17382;SDS011;8809;51.892;8.384;2023-04-06T14:42:26;16.95;;;10.88;;
17382;SDS011;8809;51.892;8.384;2023-04-06T14:44:53;17.85;;;12.18;;
17382;SDS011;8809;51.892;8.384;2023-04-06T14:47:21;15.50;;;10.63;;
17382;SDS011;8809;51.892;8.384;2023-04-06T14:49:50;17.17;;;11.02;;
17382;SDS011;8809;51.892;8.384;2023-04-06T14:52:18;16.98;;;10.52;;
17382;SDS011;8809;51.892;8.384;2023-04-06T14:54:49;12.50;;;9.23;;
17382;SDS011;8809;51.892;8.384;2023-04-06T14:57:16;15.23;;;10.13;;
17382;SDS011;8809;51.892;8.384;2023-04-06T14:59:43;12.88;;;8.82;;
17382;SDS011;8809;51.892;8.384;2023-04-06T15:02:11;13.55;;;9.15;;